Tasman Sea — WDB5559 — position and weather

sailwx.info

Track history (hours):
 
Tides and Currents Weather Stations Pressure Air Temp Water Temp Dewpoint Dewpoint Depression Visibility Wind Speed Wind Dir Waves Ship Positions

Tasman Sea

Owner: Kirby Offshore Marine, LLC, Staten Island, NY. More information available from US FCC via Universal Licensing System and Coast Guard Vessel Documentation Center.

Last reported at 2016-Aug-25 03:33 UTC. Time now 2016-Aug-25 04:30 UTC.
Position N 40°39' W 074°03'.

Length 38 m; draft 6 m.

Type: . MMSI: 366910960.

Date/timePositionNaut miles runAvg speedWind from/ knotsBaromVisibWave heightAir tempDewpointWater temp
2016-Aug-25 03:33N 40°39' W 074°03'0 0.2
2016-Aug-25 02:33N 40°39' W 074°03'2 2.3
2016-Aug-25 01:28N 40°37' W 074°03'0 0.0
2016-Aug-25 00:33N 40°37' W 074°03'0 0.0
2016-Aug-24 23:33N 40°37' W 074°03'4 3.5
2016-Aug-24 22:33N 40°39' W 074°07'1 0.8
2016-Aug-24 21:33N 40°39' W 074°06'2 2.0
2016-Aug-24 20:31N 40°39' W 074°03'0 0.0
2016-Aug-24 19:31N 40°39' W 074°03'0 0.0
2016-Aug-24 18:31N 40°39' W 074°03'0 0.0
2016-Aug-24 17:31N 40°39' W 074°03'0 0.0
2016-Aug-24 16:31N 40°39' W 074°03'0 0.1
2016-Aug-24 15:31N 40°39' W 074°03'0 0.2
2016-Aug-24 14:31N 40°39' W 074°03'0 0.0
2016-Aug-24 13:28N 40°39' W 074°03'0 0.0
2016-Aug-24 12:31N 40°39' W 074°03'0 0.0
2016-Aug-24 11:31N 40°39' W 074°03'0 0.0
2016-Aug-24 10:31N 40°39' W 074°03'0 0.0
2016-Aug-24 09:31N 40°39' W 074°03'0 0.1
2016-Aug-24 08:31N 40°39' W 074°03'0 0.2
2016-Aug-24 07:31N 40°39' W 074°03'0 0.1
2016-Aug-24 06:31N 40°39' W 074°03'0 0.0
2016-Aug-24 04:31N 40°39' W 074°03'0 0.0
2016-Aug-24 03:31N 40°39' W 074°03'0 0.1
2016-Aug-24 02:31N 40°39' W 074°03'0 0.2
2016-Aug-24 01:31N 40°39' W 074°03'0 0.1
2016-Aug-24 00:31N 40°39' W 074°03'0 0.0
2016-Aug-23 23:31N 40°39' W 074°03'0 0.0
2016-Aug-23 22:33N 40°39' W 074°03'0 0.0
2016-Aug-23 21:33N 40°39' W 074°03'2 1.8
2016-Aug-23 20:33N 40°39' W 074°05'3 3.4
2016-Aug-23 19:32N 40°39' W 074°10'0 0.0
2016-Aug-23 18:33N 40°39' W 074°10'0 0.0
2016-Aug-23 17:33N 40°39' W 074°10'0 0.0
2016-Aug-23 16:33N 40°39' W 074°10'0 0.0
2016-Aug-23 15:33N 40°39' W 074°10'0 0.0
2016-Aug-23 14:28N 40°39' W 074°10'0 0.0
2016-Aug-23 13:33N 40°39' W 074°10'0 0.0
2016-Aug-23 12:33N 40°39' W 074°10'0 0.0
2016-Aug-23 11:32N 40°39' W 074°10'0 0.0
2016-Aug-23 10:33N 40°39' W 074°10'5 5.3
2016-Aug-23 09:33N 40°39' W 074°03'3 2.6
2016-Aug-23 08:29N 40°39' W 074°07'0 0.0
2016-Aug-23 07:31N 40°39' W 074°07'0 0.0
2016-Aug-23 06:32N 40°39' W 074°07'0 0.0
2016-Aug-23 05:29N 40°39' W 074°07'0 0.0
2016-Aug-23 04:31N 40°39' W 074°07'0 0.0
2016-Aug-23 03:28N 40°39' W 074°07'1 0.6
2016-Aug-23 02:33N 40°39' W 074°06'2 2.2
2016-Aug-23 01:31N 40°39' W 074°03'0 0.0
2016-Aug-23 00:31N 40°39' W 074°03'0 0.0
2016-Aug-22 23:31N 40°39' W 074°03'0 0.0
2016-Aug-22 22:31N 40°39' W 074°03'0 0.0
2016-Aug-22 21:31N 40°39' W 074°03'0 0.0
2016-Aug-22 20:31N 40°39' W 074°03'0 0.0
2016-Aug-22 19:31N 40°39' W 074°03'0 0.1
2016-Aug-22 18:34N 40°39' W 074°03'0 0.0
2016-Aug-22 17:34N 40°39' W 074°03'0 0.2
2016-Aug-22 16:34N 40°39' W 074°03'4 3.9
2016-Aug-22 15:33N 40°35' W 074°01'0 0.0
2016-Aug-22 14:24N 40°35' W 074°01'0 0.0
2016-Aug-22 13:30N 40°35' W 074°01'0 0.0
2016-Aug-22 12:27N 40°35' W 074°01'0 0.0
2016-Aug-22 11:30N 40°35' W 074°01'0 0.0
2016-Aug-22 10:33N 40°35' W 074°01'0 0.0
2016-Aug-22 09:33N 40°35' W 074°01'0 0.3
2016-Aug-22 08:33N 40°35' W 074°01'5 4.7
2016-Aug-22 07:33N 40°31' W 073°58'6 6.0
2016-Aug-22 06:28N 40°29' W 073°50'157 8.2
2016-Aug-21 11:20N 41°36' W 070°43'10 7.9
2016-Aug-21 10:05N 41°45' W 070°36'4 8.6
2016-Aug-21 09:33N 41°46' W 070°30'8 7.6
2016-Aug-21 08:33N 41°54' W 070°29'8 8.0
2016-Aug-21 07:33N 42°02' W 070°31'8 8.3
2016-Aug-21 06:33N 42°10' W 070°36'9 8.6
2016-Aug-21 05:33N 42°17' W 070°42'8 8.5
2016-Aug-21 04:33N 42°23' W 070°50'7 6.9
2016-Aug-21 03:33N 42°20' W 070°59'4 3.7
2016-Aug-21 02:33N 42°23' W 071°01'0 0.2
2016-Aug-21 01:33N 42°24' W 071°01'0 0.0
2016-Aug-21 00:33N 42°24' W 071°01'0 0.0
2016-Aug-20 23:33N 42°24' W 071°01'0 0.0
2016-Aug-20 22:33N 42°24' W 071°01'0 0.0
2016-Aug-20 21:33N 42°24' W 071°01'0 0.0
2016-Aug-20 20:33N 42°24' W 071°01'0 0.3
2016-Aug-20 19:33N 42°24' W 071°01'0 0.0
2016-Aug-20 18:31N 42°24' W 071°01'0 0.0
2016-Aug-20 16:31N 42°24' W 071°01'0 0.0
2016-Aug-20 15:25N 42°24' W 071°01'0 0.0
2016-Aug-20 14:31N 42°24' W 071°01'0 0.0
2016-Aug-20 13:31N 42°24' W 071°01'0 0.0
2016-Aug-20 12:31N 42°24' W 071°01'0 0.0
2016-Aug-20 11:31N 42°24' W 071°01'0 0.0
2016-Aug-20 10:31N 42°24' W 071°01'0 0.0
2016-Aug-20 09:31N 42°24' W 071°01'0 0.0
2016-Aug-20 08:31N 42°24' W 071°01'0 0.0
2016-Aug-20 07:31N 42°24' W 071°01'0 0.0
2016-Aug-20 06:23N 42°24' W 071°01'0 0.2
2016-Aug-20 05:33N 42°24' W 071°01'3 2.6
2016-Aug-20 04:33N 42°21' W 071°02'3 2.6
2016-Aug-20 03:33N 42°21' W 070°59'0 0.1
2016-Aug-20 02:33N 42°20' W 070°59'0 0.0
2016-Aug-20 01:33N 42°20' W 070°59'0 0.0
2016-Aug-20 00:33N 42°20' W 070°59'0 0.0
2016-Aug-19 23:33N 42°20' W 070°59'0 0.0
2016-Aug-19 22:33N 42°20' W 070°59'0 0.0
2016-Aug-19 21:33N 42°20' W 070°59'0 0.0
2016-Aug-19 20:33N 42°20' W 070°59'0 0.1
2016-Aug-19 19:33N 42°20' W 070°59'0 0.0
2016-Aug-19 18:33N 42°20' W 070°59'0 0.0
2016-Aug-19 17:33N 42°20' W 070°59'0 0.1
2016-Aug-19 16:33N 42°20' W 070°59'0 0.0
2016-Aug-19 15:33N 42°20' W 070°59'0 0.0
2016-Aug-19 14:33N 42°20' W 070°59'0 0.0
2016-Aug-19 13:33N 42°20' W 070°59'0 0.1
2016-Aug-19 12:33N 42°20' W 070°59'0 0.0
2016-Aug-19 11:33N 42°20' W 070°59'0 0.1
2016-Aug-19 10:33N 42°20' W 070°58'0 0.1
2016-Aug-19 09:33N 42°20' W 070°58'0 0.0
2016-Aug-19 08:33N 42°20' W 070°58'0 0.0
2016-Aug-19 07:33N 42°20' W 070°58'0 0.0
2016-Aug-19 06:33N 42°20' W 070°58'0 0.0
2016-Aug-19 05:33N 42°20' W 070°58'0 0.0
2016-Aug-19 04:33N 42°20' W 070°58'0 0.0
2016-Aug-19 03:33N 42°20' W 070°58'0 0.0
2016-Aug-19 02:33N 42°20' W 070°58'0 0.1
2016-Aug-19 01:33N 42°20' W 070°58'0 0.0
2016-Aug-19 00:33N 42°20' W 070°58'0 0.1
2016-Aug-18 23:33N 42°20' W 070°59'0 0.1
2016-Aug-18 22:33N 42°20' W 070°59'0 0.0
2016-Aug-18 21:33N 42°20' W 070°59'0 0.1
2016-Aug-18 20:33N 42°20' W 070°58'0 0.1
2016-Aug-18 19:33N 42°21' W 070°58'0 0.1
2016-Aug-18 18:33N 42°20' W 070°58'0 0.0
2016-Aug-18 17:33N 42°20' W 070°58'0 0.0
2016-Aug-18 16:33N 42°20' W 070°58'0 0.0
2016-Aug-18 15:33N 42°20' W 070°58'0 0.1
2016-Aug-18 14:33N 42°21' W 070°58'0 0.1
2016-Aug-18 13:33N 42°21' W 070°59'0 0.0
2016-Aug-18 12:33N 42°21' W 070°59'0 0.0
2016-Aug-18 11:33N 42°21' W 070°59'0 0.1
2016-Aug-18 10:33N 42°20' W 070°59'0 0.1
2016-Aug-18 09:33N 42°20' W 070°58'0 0.0
2016-Aug-18 08:30N 42°20' W 070°58'0 0.0
2016-Aug-18 07:33N 42°20' W 070°58'0 0.2
2016-Aug-18 06:33N 42°20' W 070°58'7 7.1
2016-Aug-18 05:34N 42°25' W 070°51'8 8.1
2016-Aug-18 04:33N 42°30' W 070°42'8 8.4
2016-Aug-18 03:33N 42°35' W 070°34'8 8.2
2016-Aug-18 02:33N 42°43' W 070°28'8 8.2
2016-Aug-18 01:33N 42°50' W 070°24'8 8.4
2016-Aug-18 00:33N 42°58' W 070°21'9 8.5
2016-Aug-17 23:33N 43°07' W 070°18'  
2016-Aug-15 07:32N 42°43' W 069°58'  
Track history (hours):
 
Tides and Currents Weather Stations Pressure Air Temp Water Temp Dewpoint Dewpoint Depression Visibility Wind Speed Wind Dir Waves Ship Positions

Tasman Sea

Owner: Kirby Offshore Marine, LLC, Staten Island, NY. More information available from US FCC via Universal Licensing System and Coast Guard Vessel Documentation Center.

Last reported at 2016-Aug-25 03:33 UTC. Time now 2016-Aug-25 04:30 UTC.
Position N 40°39' W 074°03'.

Length 38 m; draft 6 m.

Type: . MMSI: 366910960.

Date/timePositionNaut miles runAvg speedWind from/ knotsBaromVisibWave heightAir tempDewpointWater temp
2016-Aug-25 03:33N 40°39' W 074°03'0 0.2
2016-Aug-25 02:33N 40°39' W 074°03'2 2.3
2016-Aug-25 01:28N 40°37' W 074°03'0 0.0
2016-Aug-25 00:33N 40°37' W 074°03'0 0.0
2016-Aug-24 23:33N 40°37' W 074°03'4 3.5
2016-Aug-24 22:33N 40°39' W 074°07'1 0.8
2016-Aug-24 21:33N 40°39' W 074°06'2 2.0
2016-Aug-24 20:31N 40°39' W 074°03'0 0.0
2016-Aug-24 19:31N 40°39' W 074°03'0 0.0
2016-Aug-24 18:31N 40°39' W 074°03'0 0.0
2016-Aug-24 17:31N 40°39' W 074°03'0 0.0
2016-Aug-24 16:31N 40°39' W 074°03'0 0.1
2016-Aug-24 15:31N 40°39' W 074°03'0 0.2
2016-Aug-24 14:31N 40°39' W 074°03'0 0.0
2016-Aug-24 13:28N 40°39' W 074°03'0 0.0
2016-Aug-24 12:31N 40°39' W 074°03'0 0.0
2016-Aug-24 11:31N 40°39' W 074°03'0 0.0
2016-Aug-24 10:31N 40°39' W 074°03'0 0.0
2016-Aug-24 09:31N 40°39' W 074°03'0 0.1
2016-Aug-24 08:31N 40°39' W 074°03'0 0.2
2016-Aug-24 07:31N 40°39' W 074°03'0 0.1
2016-Aug-24 06:31N 40°39' W 074°03'0 0.0
2016-Aug-24 04:31N 40°39' W 074°03'0 0.0
2016-Aug-24 03:31N 40°39' W 074°03'0 0.1
2016-Aug-24 02:31N 40°39' W 074°03'0 0.2
2016-Aug-24 01:31N 40°39' W 074°03'0 0.1
2016-Aug-24 00:31N 40°39' W 074°03'0 0.0
2016-Aug-23 23:31N 40°39' W 074°03'0 0.0
2016-Aug-23 22:33N 40°39' W 074°03'0 0.0
2016-Aug-23 21:33N 40°39' W 074°03'2 1.8
2016-Aug-23 20:33N 40°39' W 074°05'3 3.4
2016-Aug-23 19:32N 40°39' W 074°10'0 0.0
2016-Aug-23 18:33N 40°39' W 074°10'0 0.0
2016-Aug-23 17:33N 40°39' W 074°10'0 0.0
2016-Aug-23 16:33N 40°39' W 074°10'0 0.0
2016-Aug-23 15:33N 40°39' W 074°10'0 0.0
2016-Aug-23 14:28N 40°39' W 074°10'0 0.0
2016-Aug-23 13:33N 40°39' W 074°10'0 0.0
2016-Aug-23 12:33N 40°39' W 074°10'0 0.0
2016-Aug-23 11:32N 40°39' W 074°10'0 0.0
2016-Aug-23 10:33N 40°39' W 074°10'5 5.3
2016-Aug-23 09:33N 40°39' W 074°03'3 2.6
2016-Aug-23 08:29N 40°39' W 074°07'0 0.0
2016-Aug-23 07:31N 40°39' W 074°07'0 0.0
2016-Aug-23 06:32N 40°39' W 074°07'0 0.0
2016-Aug-23 05:29N 40°39' W 074°07'0 0.0
2016-Aug-23 04:31N 40°39' W 074°07'0 0.0
2016-Aug-23 03:28N 40°39' W 074°07'1 0.6
2016-Aug-23 02:33N 40°39' W 074°06'2 2.2
2016-Aug-23 01:31N 40°39' W 074°03'0 0.0
2016-Aug-23 00:31N 40°39' W 074°03'0 0.0
2016-Aug-22 23:31N 40°39' W 074°03'0 0.0
2016-Aug-22 22:31N 40°39' W 074°03'0 0.0
2016-Aug-22 21:31N 40°39' W 074°03'0 0.0
2016-Aug-22 20:31N 40°39' W 074°03'0 0.0
2016-Aug-22 19:31N 40°39' W 074°03'0 0.1
2016-Aug-22 18:34N 40°39' W 074°03'0 0.0
2016-Aug-22 17:34N 40°39' W 074°03'0 0.2
2016-Aug-22 16:34N 40°39' W 074°03'4 3.9
2016-Aug-22 15:33N 40°35' W 074°01'0 0.0
2016-Aug-22 14:24N 40°35' W 074°01'0 0.0
2016-Aug-22 13:30N 40°35' W 074°01'0 0.0
2016-Aug-22 12:27N 40°35' W 074°01'0 0.0
2016-Aug-22 11:30N 40°35' W 074°01'0 0.0
2016-Aug-22 10:33N 40°35' W 074°01'0 0.0
2016-Aug-22 09:33N 40°35' W 074°01'0 0.3
2016-Aug-22 08:33N 40°35' W 074°01'5 4.7
2016-Aug-22 07:33N 40°31' W 073°58'6 6.0
2016-Aug-22 06:28N 40°29' W 073°50'157 8.2
2016-Aug-21 11:20N 41°36' W 070°43'10 7.9
2016-Aug-21 10:05N 41°45' W 070°36'4 8.6
2016-Aug-21 09:33N 41°46' W 070°30'8 7.6
2016-Aug-21 08:33N 41°54' W 070°29'8 8.0
2016-Aug-21 07:33N 42°02' W 070°31'8 8.3
2016-Aug-21 06:33N 42°10' W 070°36'9 8.6
2016-Aug-21 05:33N 42°17' W 070°42'8 8.5
2016-Aug-21 04:33N 42°23' W 070°50'7 6.9
2016-Aug-21 03:33N 42°20' W 070°59'4 3.7
2016-Aug-21 02:33N 42°23' W 071°01'0 0.2
2016-Aug-21 01:33N 42°24' W 071°01'0 0.0
2016-Aug-21 00:33N 42°24' W 071°01'0 0.0
2016-Aug-20 23:33N 42°24' W 071°01'0 0.0
2016-Aug-20 22:33N 42°24' W 071°01'0 0.0
2016-Aug-20 21:33N 42°24' W 071°01'0 0.0
2016-Aug-20 20:33N 42°24' W 071°01'0 0.3
2016-Aug-20 19:33N 42°24' W 071°01'0 0.0
2016-Aug-20 18:31N 42°24' W 071°01'0 0.0
2016-Aug-20 16:31N 42°24' W 071°01'0 0.0
2016-Aug-20 15:25N 42°24' W 071°01'0 0.0
2016-Aug-20 14:31N 42°24' W 071°01'0 0.0
2016-Aug-20 13:31N 42°24' W 071°01'0 0.0
2016-Aug-20 12:31N 42°24' W 071°01'0 0.0
2016-Aug-20 11:31N 42°24' W 071°01'0 0.0
2016-Aug-20 10:31N 42°24' W 071°01'0 0.0
2016-Aug-20 09:31N 42°24' W 071°01'0 0.0
2016-Aug-20 08:31N 42°24' W 071°01'0 0.0
2016-Aug-20 07:31N 42°24' W 071°01'0 0.0
2016-Aug-20 06:23N 42°24' W 071°01'0 0.2
2016-Aug-20 05:33N 42°24' W 071°01'3 2.6
2016-Aug-20 04:33N 42°21' W 071°02'3 2.6
2016-Aug-20 03:33N 42°21' W 070°59'0 0.1
2016-Aug-20 02:33N 42°20' W 070°59'0 0.0
2016-Aug-20 01:33N 42°20' W 070°59'0 0.0
2016-Aug-20 00:33N 42°20' W 070°59'0 0.0
2016-Aug-19 23:33N 42°20' W 070°59'0 0.0
2016-Aug-19 22:33N 42°20' W 070°59'0 0.0
2016-Aug-19 21:33N 42°20' W 070°59'0 0.0
2016-Aug-19 20:33N 42°20' W 070°59'0 0.1
2016-Aug-19 19:33N 42°20' W 070°59'0 0.0
2016-Aug-19 18:33N 42°20' W 070°59'0 0.0
2016-Aug-19 17:33N 42°20' W 070°59'0 0.1
2016-Aug-19 16:33N 42°20' W 070°59'0 0.0
2016-Aug-19 15:33N 42°20' W 070°59'0 0.0
2016-Aug-19 14:33N 42°20' W 070°59'0 0.0
2016-Aug-19 13:33N 42°20' W 070°59'0 0.1
2016-Aug-19 12:33N 42°20' W 070°59'0 0.0
2016-Aug-19 11:33N 42°20' W 070°59'0 0.1
2016-Aug-19 10:33N 42°20' W 070°58'0 0.1
2016-Aug-19 09:33N 42°20' W 070°58'0 0.0
2016-Aug-19 08:33N 42°20' W 070°58'0 0.0
2016-Aug-19 07:33N 42°20' W 070°58'0 0.0
2016-Aug-19 06:33N 42°20' W 070°58'0 0.0
2016-Aug-19 05:33N 42°20' W 070°58'0 0.0
2016-Aug-19 04:33N 42°20' W 070°58'0 0.0
2016-Aug-19 03:33N 42°20' W 070°58'0 0.0
2016-Aug-19 02:33N 42°20' W 070°58'0 0.1
2016-Aug-19 01:33N 42°20' W 070°58'0 0.0
2016-Aug-19 00:33N 42°20' W 070°58'0 0.1
2016-Aug-18 23:33N 42°20' W 070°59'0 0.1
2016-Aug-18 22:33N 42°20' W 070°59'0 0.0
2016-Aug-18 21:33N 42°20' W 070°59'0 0.1
2016-Aug-18 20:33N 42°20' W 070°58'0 0.1
2016-Aug-18 19:33N 42°21' W 070°58'0 0.1
2016-Aug-18 18:33N 42°20' W 070°58'0 0.0
2016-Aug-18 17:33N 42°20' W 070°58'0 0.0
2016-Aug-18 16:33N 42°20' W 070°58'0 0.0
2016-Aug-18 15:33N 42°20' W 070°58'0 0.1
2016-Aug-18 14:33N 42°21' W 070°58'0 0.1
2016-Aug-18 13:33N 42°21' W 070°59'0 0.0
2016-Aug-18 12:33N 42°21' W 070°59'0 0.0
2016-Aug-18 11:33N 42°21' W 070°59'0 0.1
2016-Aug-18 10:33N 42°20' W 070°59'0 0.1
2016-Aug-18 09:33N 42°20' W 070°58'0 0.0
2016-Aug-18 08:30N 42°20' W 070°58'0 0.0
2016-Aug-18 07:33N 42°20' W 070°58'0 0.2
2016-Aug-18 06:33N 42°20' W 070°58'7 7.1
2016-Aug-18 05:34N 42°25' W 070°51'8 8.1
2016-Aug-18 04:33N 42°30' W 070°42'8 8.4
2016-Aug-18 03:33N 42°35' W 070°34'8 8.2
2016-Aug-18 02:33N 42°43' W 070°28'8 8.2
2016-Aug-18 01:33N 42°50' W 070°24'8 8.4
2016-Aug-18 00:33N 42°58' W 070°21'9 8.5
2016-Aug-17 23:33N 43°07' W 070°18'  
2016-Aug-15 07:32N 42°43' W 069°58'  

Dump ship's entire track history